Valley City, ND

12:14 AM CDT on October 17, 2017 (GMT -0500)
Valley City

Weather History for KBAC - February, 2013

Change the Weather History Date:

Tuesday, February 19, 2013

  Actual Average (KJMS) Record (KJMS)
Temperature  
Mean Temperature -6 °F -  
Max Temperature 0 °F 26 °F 52 °F (1981)
Min Temperature -13 °F 8 °F -36 °F (1929)
Degree Days  
Heating Degree Days 72    
Moisture  
Dew Point -15 °F    
Average Humidity 72    
Maximum Humidity 84    
Minimum Humidity 65    
Precipitation  
Precipitation 0.29 in - - ()
Sea Level Pressure  
Sea Level Pressure 30.31 in    
Wind  
Wind Speed 18 mph (NNW)    
Max Wind Speed 23 mph    
Max Gust Speed 29 mph    
Visibility 10 miles    
Events Snow    
Averages and records for this station are not official NWS values.
T = Trace of Precipitation, MM = Missing Value Source: NWS Daily Summary

Daily Weather History Graph

Daily Weather History Graph

Search for Another Location

Airport or City:

Trip Planner

Search our weather history database for the weather conditions in past years. The results will help you decide how hot, cold, wet, or windy it might be!

Date:

Astronomy

Feb. 19, 2013 Rise Set
Actual Time 7:29 AM CST 6:03 PM CST
Civil Twilight 6:58 AM CST 6:34 PM CST
Nautical Twilight 6:22 AM CST 7:09 PM CST
Astronomical Twilight 5:47 AM CST 7:44 PM CST
Moon 12:23 PM CST (2/19) 3:14 AM CST (2/19)
Length of Visible Light 11h 35m
Length of Day
10h 33m
Waxing Gibbous, 67% of the Moon is Illuminated
Feb 19
Waxing Gibbous
Feb 25
Full
Mar 4
Last Quarter
Mar 11
New
Mar 19
First Quarter

Hourly Weather History & Observations

Time (CST) Temp. Windchill Dew Point Humidity Pressure Visibility Wind Dir Wind Speed Gust Speed Precip Events Conditions
12:15 AM -4.0 °F -28.6 °F -9.4 °F 78% 30.15 in 7.0 mi NNW 23.0 mph 27.6 mph N/A Snow Light Snow
12:35 AM -5.8 °F -29.4 °F -11.2 °F 77% 30.16 in 8.0 mi NNW 19.6 mph 25.3 mph 0.01 in Snow Light Snow
12:55 AM -5.8 °F -28.8 °F -11.2 °F 77% 30.17 in 8.0 mi NNW 18.4 mph - 0.02 in Snow Light Snow
1:15 AM -7.6 °F -32.9 °F -13.0 °F 77% 30.17 in 9.0 mi NNW 21.9 mph 27.6 mph N/A Snow Light Snow
1:35 AM -7.6 °F -31.7 °F -13.0 °F 77% 30.18 in 10.0 mi NNW 19.6 mph 25.3 mph 0.01 in Snow Light Snow
1:55 AM -7.6 °F -29.8 °F -13.0 °F 77% 30.18 in 10.0 mi NNW 16.1 mph 25.3 mph 0.02 in Snow Light Snow
2:15 AM -7.6 °F -30.5 °F -14.8 °F 71% 30.19 in 10.0 mi NNW 17.3 mph 23.0 mph N/A Snow Light Snow
2:35 AM -7.6 °F -31.7 °F -14.8 °F 71% 30.20 in 10.0 mi NNW 19.6 mph 24.2 mph 0.01 in Snow Light Snow
2:55 AM -9.4 °F -33.5 °F -16.6 °F 71% 30.20 in 10.0 mi NNW 18.4 mph 24.2 mph 0.02 in Snow Light Snow
3:15 AM -9.4 °F -33.5 °F -16.6 °F 71% 30.20 in 10.0 mi NNW 18.4 mph - N/A Snow Light Snow
3:35 AM -9.4 °F -32.8 °F -16.6 °F 71% 30.20 in 10.0 mi NNW 17.3 mph 26.5 mph 0.01 in Snow Light Snow
3:55 AM -9.4 °F -33.5 °F -16.6 °F 71% 30.21 in 10.0 mi NNW 18.4 mph 27.6 mph 0.02 in Snow Light Snow
4:15 AM -11.2 °F -35.2 °F -18.4 °F 70% 30.22 in 10.0 mi NNW 17.3 mph - N/A Snow Light Snow
4:35 AM -11.2 °F -34.4 °F -18.4 °F 70% 30.22 in 10.0 mi NNW 16.1 mph - 0.01 in Snow Light Snow
4:55 AM -11.2 °F -34.4 °F -18.4 °F 70% 30.22 in 10.0 mi NNW 16.1 mph 20.7 mph 0.02 in Snow Light Snow
5:15 AM -11.2 °F -33.7 °F -18.4 °F 70% 30.23 in 10.0 mi NNW 15.0 mph - N/A Snow Light Snow
5:55 AM -11.2 °F -35.2 °F -18.4 °F 70% 30.25 in 10.0 mi NNW 17.3 mph - 0.03 in Snow Light Snow
6:15 AM -11.2 °F -35.8 °F -18.4 °F 70% 30.25 in 10.0 mi NNW 18.4 mph - N/A Snow Light Snow
6:35 AM -11.2 °F -37.0 °F -18.4 °F 70% 30.25 in 10.0 mi NNW 20.7 mph 26.5 mph 0.02 in Snow Light Snow
6:55 AM -13.0 °F -40.6 °F -20.2 °F 70% 30.26 in 10.0 mi NNW 23.0 mph - 0.03 in Snow Light Snow
7:15 AM -13.0 °F -40.6 °F -20.2 °F 70% 30.27 in 10.0 mi NNW 23.0 mph 27.6 mph 0.01 in Snow Light Snow
7:35 AM -13.0 °F -40.6 °F -20.2 °F 70% 30.28 in 10.0 mi NNW 23.0 mph 27.6 mph 0.02 in Snow Light Snow
7:55 AM -13.0 °F -39.4 °F -20.2 °F 70% 30.28 in 10.0 mi NNW 20.7 mph - 0.04 in Snow Light Snow
8:15 AM -13.0 °F -39.4 °F -20.2 °F 70% 30.29 in 10.0 mi NNW 20.7 mph - N/A Snow Light Snow
8:35 AM -13.0 °F -40.0 °F -20.2 °F 70% 30.29 in 10.0 mi NNW 21.9 mph 26.5 mph 0.02 in Snow Light Snow
8:55 AM -11.2 °F -38.2 °F -18.4 °F 70% 30.30 in 10.0 mi NNW 23.0 mph 28.8 mph 0.03 in Snow Light Snow
9:15 AM -11.2 °F -37.6 °F -18.4 °F 70% 30.31 in 10.0 mi NNW 21.9 mph 27.6 mph N/A Snow Light Snow
9:35 AM -11.2 °F -36.4 °F -18.4 °F 70% 30.32 in 10.0 mi NNW 19.6 mph - 0.01 in Snow Light Snow
9:55 AM -9.4 °F -34.7 °F -16.6 °F 71% 30.32 in 10.0 mi NNW 20.7 mph - 0.03 in Snow Light Snow
10:15 AM -9.4 °F -34.1 °F -16.6 °F 71% 30.33 in 10.0 mi NNW 19.6 mph - N/A Snow Light Snow
10:35 AM -9.4 °F -33.5 °F -16.6 °F 71% 30.33 in 10.0 mi North 18.4 mph 24.2 mph 0.01 in Snow Light Snow
10:55 AM -7.6 °F -31.1 °F -14.8 °F 71% 30.34 in 10.0 mi NNW 18.4 mph - 0.02 in Snow Light Snow
11:15 AM -7.6 °F -31.7 °F -13.0 °F 77% 30.34 in 10.0 mi NNW 19.6 mph - N/A Snow Light Snow
11:35 AM -4.0 °F -27.0 °F -13.0 °F 65% 30.35 in 10.0 mi North 19.6 mph 24.2 mph N/A Snow Light Snow
11:55 AM -4.0 °F -26.4 °F -11.2 °F 71% 30.35 in 10.0 mi NNW 18.4 mph 24.2 mph 0.01 in Snow Light Snow
12:15 PM -4.0 °F -25.8 °F -11.2 °F 71% 30.36 in 10.0 mi NNW 17.3 mph - N/A Snow Light Snow
12:35 PM -2.2 °F -25.2 °F -11.2 °F 66% 30.34 in 10.0 mi North 20.7 mph - N/A Snow Light Snow
12:55 PM -2.2 °F -25.2 °F -9.4 °F 71% 30.34 in 10.0 mi North 20.7 mph 24.2 mph N/A Snow Light Snow
1:15 PM -2.2 °F -23.5 °F -9.4 °F 71% 30.34 in 10.0 mi North 17.3 mph - N/A Snow Light Snow
1:35 PM -2.2 °F -24.1 °F -9.4 °F 71% 30.34 in 10.0 mi NNW 18.4 mph - N/A Snow Light Snow
1:55 PM -2.2 °F -22.9 °F -9.4 °F 71% 30.34 in 10.0 mi North 16.1 mph - N/A Snow Light Snow
2:15 PM -2.2 °F -22.2 °F -9.4 °F 71% 30.35 in 10.0 mi NNW 15.0 mph 21.9 mph N/A   Partly Cloudy
2:35 PM -2.2 °F -24.7 °F -9.4 °F 71% 30.35 in 10.0 mi NNW 19.6 mph - N/A   Clear
2:55 PM -0.4 °F -19.9 °F -9.4 °F 66% 30.35 in 10.0 mi North 15.0 mph - N/A   Clear
3:15 PM -0.4 °F -20.5 °F -9.4 °F 66% 30.36 in 10.0 mi NNW 16.1 mph - N/A   Clear
3:35 PM -2.2 °F -23.5 °F -9.4 °F 71% 30.37 in 10.0 mi NNW 17.3 mph - N/A Snow Light Snow
3:55 PM -0.4 °F -20.5 °F -9.4 °F 66% 30.37 in 10.0 mi NNW 16.1 mph - N/A   Clear
4:15 PM -0.4 °F -20.5 °F -9.4 °F 66% 30.37 in 10.0 mi NNW 16.1 mph - N/A Snow Light Snow
4:35 PM -2.2 °F -22.2 °F -9.4 °F 71% 30.36 in 10.0 mi NNW 15.0 mph - N/A Snow Light Snow
4:55 PM -2.2 °F -19.9 °F -9.4 °F 71% 30.37 in 10.0 mi NNW 11.5 mph - N/A Snow Light Snow
5:15 PM -2.2 °F -19.9 °F -9.4 °F 71% 30.37 in 10.0 mi NNW 11.5 mph - N/A Snow Light Snow
6:35 PM -5.8 °F -23.4 °F -11.2 °F 77% 30.37 in 10.0 mi NNW 10.4 mph - N/A   Mostly Cloudy
6:55 PM -7.6 °F -24.6 °F - N/A% 30.38 in 10.0 mi NNW 9.2 mph - N/A Snow Light Snow
7:35 PM -9.4 °F -26.8 °F -13.0 °F 84% 30.39 in 10.0 mi NNW 9.2 mph - N/A   Mostly Cloudy
7:55 PM -7.6 °F -24.6 °F -13.0 °F 77% 30.39 in 10.0 mi North 9.2 mph - N/A Snow Light Snow
8:15 PM -7.6 °F -23.4 °F -13.0 °F 77% 30.39 in 10.0 mi North 8.1 mph - N/A Snow Light Snow
8:35 PM -9.4 °F -24.3 °F -14.8 °F 77% 30.40 in 10.0 mi NNE 6.9 mph - N/A   Clear
8:55 PM -9.4 °F -25.6 °F -14.8 °F 77% 30.40 in 10.0 mi NNE 8.1 mph - N/A   Clear
9:15 PM -9.4 °F -26.8 °F -14.8 °F 77% 30.40 in 10.0 mi NNE 9.2 mph - N/A   Clear
9:35 PM -11.2 °F -23.0 °F -16.6 °F 77% 30.41 in 10.0 mi NNE 4.6 mph - N/A   Clear
9:55 PM -11.2 °F -23.0 °F -16.6 °F 77% 30.41 in 10.0 mi NNE 4.6 mph - N/A   Clear
10:15 PM -11.2 °F -27.8 °F -16.6 °F 77% 30.41 in 10.0 mi NNE 8.1 mph - N/A   Clear
10:35 PM -11.2 °F -26.4 °F -18.4 °F 70% 30.41 in 10.0 mi NNE 6.9 mph - N/A   Clear
10:55 PM -11.2 °F -20.6 °F -18.4 °F 70% 30.42 in 10.0 mi North 3.5 mph - N/A   Clear
11:15 PM -11.2 °F -27.8 °F -18.4 °F 70% 30.43 in 10.0 mi North 8.1 mph - N/A   Clear
11:35 PM -11.2 °F -27.8 °F -18.4 °F 70% 30.42 in 10.0 mi NE 8.1 mph - N/A Snow Light Snow